createdAt,value
2018-06-10T00:00:47.366Z,18.80
2018-06-10T00:03:15.834Z,18.70
2018-06-10T00:05:44.299Z,18.80
2018-06-10T00:08:12.784Z,18.80
2018-06-10T00:10:41.514Z,18.70
2018-06-10T00:13:10.135Z,18.80
2018-06-10T00:15:38.614Z,18.80
2018-06-10T00:18:07.054Z,18.80
2018-06-10T00:20:35.564Z,18.70
2018-06-10T00:23:04.546Z,18.70
2018-06-10T00:25:33.004Z,18.60
2018-06-10T00:28:01.725Z,18.60
2018-06-10T00:30:30.215Z,18.60
2018-06-10T00:32:58.750Z,18.70
2018-06-10T00:35:27.216Z,18.60
2018-06-10T00:40:23.890Z,18.40
2018-06-10T00:42:52.329Z,18.40
2018-06-10T00:45:20.720Z,18.30
2018-06-10T00:47:49.168Z,18.20
2018-06-10T00:50:17.682Z,18.30
2018-06-10T00:55:14.393Z,18.20
2018-06-10T00:57:43.127Z,18.20
2018-06-10T01:02:40.056Z,18.30
2018-06-10T01:05:08.533Z,18.30
2018-06-10T01:07:36.985Z,18.30
2018-06-10T01:10:05.503Z,18.30
2018-06-10T01:12:34.839Z,18.20
2018-06-10T01:17:31.551Z,18.50
2018-06-10T01:20:00.071Z,18.40
2018-06-10T01:22:28.502Z,18.30
2018-06-10T01:24:56.960Z,18.40
2018-06-10T01:27:25.406Z,18.30
2018-06-10T01:29:54.042Z,18.30
2018-06-10T01:32:23.068Z,18.40
2018-06-10T01:34:51.556Z,18.40
2018-06-10T01:37:20.006Z,18.40
2018-06-10T01:39:48.518Z,18.50
2018-06-10T01:44:45.163Z,18.30
2018-06-10T01:47:13.630Z,18.20
2018-06-10T01:49:42.177Z,18.20
2018-06-10T01:52:10.660Z,18.10
2018-06-10T01:54:39.438Z,18.20
2018-06-10T01:57:07.897Z,18.30
2018-06-10T02:02:04.985Z,18.50
2018-06-10T02:04:33.494Z,18.40
2018-06-10T02:07:02.014Z,18.30
2018-06-10T02:11:58.925Z,18.20
2018-06-10T02:14:27.399Z,18.20
2018-06-10T02:16:55.930Z,18.30
2018-06-10T02:21:52.547Z,18.30
2018-06-10T02:24:21.171Z,18.30
2018-06-10T02:29:17.837Z,18.30
2018-06-10T02:31:46.265Z,18.10
2018-06-10T02:34:14.800Z,17.90
2018-06-10T02:36:43.257Z,17.90
2018-06-10T02:39:11.669Z,18.00
2018-06-10T02:41:40.131Z,18.00
2018-06-10T02:46:36.853Z,17.90
2018-06-10T02:49:05.296Z,18.00
2018-06-10T02:51:33.890Z,18.00
2018-06-10T02:54:02.452Z,18.00
2018-06-10T02:56:30.873Z,18.00
2018-06-10T02:58:59.346Z,18.00
2018-06-10T03:01:27.924Z,17.90
2018-06-10T03:03:56.402Z,17.90
2018-06-10T03:06:25.160Z,17.80
2018-06-10T03:08:53.670Z,17.90
2018-06-10T03:11:22.334Z,17.90
2018-06-10T03:16:19.037Z,17.80
2018-06-10T03:18:47.499Z,17.70
2018-06-10T03:21:15.992Z,17.70
2018-06-10T03:23:45.041Z,17.80
2018-06-10T03:26:13.510Z,17.60
2018-06-10T03:28:42.027Z,17.60
2018-06-10T03:31:10.477Z,17.50
2018-06-10T03:33:38.969Z,17.50
2018-06-10T03:36:07.494Z,17.50
2018-06-10T03:38:35.967Z,17.40
2018-06-10T03:41:04.643Z,17.50
2018-06-10T03:43:33.297Z,17.60
2018-06-10T03:46:01.856Z,17.50
2018-06-10T03:48:30.341Z,17.50
2018-06-10T03:53:26.970Z,17.70
2018-06-10T03:55:55.453Z,17.80
2018-06-10T03:58:24.098Z,17.50
2018-06-10T04:00:52.557Z,17.40
2018-06-10T04:05:49.205Z,17.20
2018-06-10T04:08:17.699Z,17.30
2018-06-10T04:10:46.166Z,17.40
2018-06-10T04:13:14.625Z,17.40
2018-06-10T04:15:43.063Z,17.40
2018-06-10T04:18:11.506Z,17.40
2018-06-10T04:23:08.126Z,17.40
2018-06-10T04:25:36.692Z,17.40
2018-06-10T04:28:05.218Z,17.40
2018-06-10T04:33:01.863Z,17.50
2018-06-10T04:35:30.430Z,17.60
2018-06-10T04:37:59.097Z,17.60
2018-06-10T04:40:27.545Z,17.60
2018-06-10T04:42:55.976Z,17.60
2018-06-10T04:45:24.476Z,17.70
2018-06-10T04:47:52.959Z,17.70
2018-06-10T04:50:21.452Z,17.80
2018-06-10T04:52:50.146Z,17.80
2018-06-10T04:55:18.648Z,17.80
2018-06-10T04:57:47.098Z,17.70
2018-06-10T05:00:15.626Z,17.60
2018-06-10T05:02:44.070Z,17.70
2018-06-10T05:05:12.485Z,17.80
2018-06-10T05:07:40.962Z,18.00
2018-06-10T05:10:09.456Z,18.10
2018-06-10T05:12:37.923Z,18.00
2018-06-10T05:15:06.419Z,17.90
2018-06-10T05:17:35.038Z,18.20
2018-06-10T05:22:31.728Z,18.20
2018-06-10T05:25:00.263Z,18.20
2018-06-10T05:27:28.701Z,18.20
2018-06-10T05:29:57.102Z,18.20
2018-06-10T05:32:25.606Z,18.20
2018-06-10T05:34:54.137Z,18.20
2018-06-10T05:37:22.766Z,18.30
2018-06-10T05:39:51.365Z,18.30
2018-06-10T05:44:48.054Z,18.50
2018-06-10T05:47:16.528Z,18.60
2018-06-10T05:49:45.023Z,18.70
2018-06-10T05:52:13.508Z,18.70
2018-06-10T05:54:41.995Z,18.70
2018-06-10T05:57:10.690Z,18.80
2018-06-10T05:59:39.304Z,18.80
2018-06-10T06:02:07.985Z,19.00
2018-06-10T06:04:36.468Z,19.20
2018-06-10T06:07:07.917Z,19.30
2018-06-10T06:09:36.615Z,19.30
2018-06-10T06:14:33.570Z,19.30
2018-06-10T06:17:02.612Z,19.40
2018-06-10T06:19:31.517Z,19.40
2018-06-10T06:22:00.069Z,19.40
2018-06-10T06:24:28.678Z,19.30
2018-06-10T06:26:57.117Z,19.40
2018-06-10T06:29:26.217Z,19.30
2018-06-10T06:31:54.689Z,19.40
2018-06-10T06:34:23.142Z,19.40
2018-06-10T06:36:51.739Z,19.30
2018-06-10T06:41:48.446Z,19.50
2018-06-10T06:44:16.861Z,19.70
2018-06-10T06:46:45.314Z,19.70
2018-06-10T06:49:13.795Z,19.70
2018-06-10T06:51:42.404Z,19.80
2018-06-10T06:54:10.854Z,19.80
2018-06-10T06:56:39.419Z,20.00
2018-06-10T06:59:07.987Z,20.00
2018-06-10T07:01:36.481Z,20.30
2018-06-10T07:04:04.942Z,20.40
2018-06-10T07:06:33.391Z,20.50
2018-06-10T07:09:01.925Z,20.70
2018-06-10T07:11:30.459Z,20.90
2018-06-10T07:13:59.119Z,21.00
2018-06-10T07:16:27.769Z,21.10
2018-06-10T07:18:56.440Z,21.20
2018-06-10T07:21:25.159Z,21.30
2018-06-10T07:23:53.682Z,21.50
2018-06-10T07:26:22.309Z,21.60
2018-06-10T07:28:50.877Z,21.70
2018-06-10T07:31:19.760Z,21.90
2018-06-10T07:36:16.709Z,22.00
2018-06-10T07:38:45.350Z,22.10
2018-06-10T07:41:14.104Z,22.10
2018-06-10T07:46:10.957Z,22.30
2018-06-10T07:48:39.447Z,22.30
2018-06-10T07:51:07.918Z,22.40
2018-06-10T07:53:36.410Z,22.50
2018-06-10T07:56:04.941Z,22.40
2018-06-10T07:58:33.600Z,22.30
2018-06-10T08:01:02.055Z,22.50
2018-06-10T08:03:30.786Z,22.70
2018-06-10T08:05:59.287Z,23.00
2018-06-10T08:08:27.790Z,23.20
2018-06-10T08:13:24.403Z,23.40
2018-06-10T08:15:52.882Z,23.80
2018-06-10T08:18:21.358Z,23.90
2018-06-10T08:20:49.818Z,24.00
2018-06-10T08:23:18.324Z,23.90
2018-06-10T08:25:46.848Z,23.60
2018-06-10T08:30:43.556Z,23.60
2018-06-10T08:33:12.007Z,23.50
2018-06-10T08:35:40.461Z,23.60
2018-06-10T08:38:08.942Z,24.00
2018-06-10T08:40:37.460Z,24.20
2018-06-10T08:43:06.048Z,24.20
2018-06-10T08:45:34.550Z,24.20
2018-06-10T08:48:03.040Z,24.10
2018-06-10T08:50:31.537Z,23.90
2018-06-10T08:52:59.989Z,23.90
2018-06-10T08:55:28.529Z,24.00
2018-06-10T08:57:57.146Z,24.70
2018-06-10T09:00:25.614Z,24.80
2018-06-10T09:02:54.217Z,24.80
2018-06-10T09:05:22.990Z,24.60
2018-06-10T09:07:51.516Z,24.40
2018-06-10T09:10:20.121Z,24.50
2018-06-10T09:15:16.850Z,24.40
2018-06-10T09:17:45.363Z,24.40
2018-06-10T09:22:42.022Z,25.00
2018-06-10T09:25:10.535Z,24.90
2018-06-10T09:27:39.068Z,24.90
2018-06-10T09:30:07.596Z,24.80
2018-06-10T09:32:36.079Z,24.90
2018-06-10T09:35:04.604Z,25.10
2018-06-10T09:37:33.099Z,25.60
2018-06-10T09:40:01.634Z,25.40
2018-06-10T09:42:30.122Z,25.60
2018-06-10T09:44:58.596Z,25.20
2018-06-10T09:47:27.076Z,25.40
2018-06-10T09:49:55.602Z,25.90
2018-06-10T09:54:52.237Z,26.10
2018-06-10T09:57:20.646Z,25.60
2018-06-10T10:02:18.115Z,25.40
2018-06-10T10:04:46.639Z,25.00
2018-06-10T10:07:15.178Z,25.30
2018-06-10T10:12:11.879Z,26.30
2018-06-10T10:14:40.399Z,26.30
2018-06-10T10:17:08.843Z,25.70
2018-06-10T10:19:37.405Z,25.60
2018-06-10T10:22:05.902Z,25.40
2018-06-10T10:24:34.580Z,25.20
2018-06-10T10:27:03.094Z,25.20
2018-06-10T10:29:31.894Z,25.30
2018-06-10T10:32:00.533Z,25.60
2018-06-10T10:34:29.040Z,26.10
2018-06-10T10:36:57.531Z,26.20
2018-06-10T10:39:25.994Z,26.00
2018-06-10T10:41:54.511Z,25.90
2018-06-10T10:44:24.017Z,25.70
2018-06-10T10:46:52.550Z,25.30
2018-06-10T10:49:21.074Z,25.50
2018-06-10T10:51:49.562Z,25.70
2018-06-10T10:54:18.076Z,26.40
2018-06-10T10:56:46.557Z,26.50
2018-06-10T10:59:15.205Z,26.00
2018-06-10T11:01:43.785Z,25.50
2018-06-10T11:04:12.247Z,25.50
2018-06-10T11:06:40.798Z,25.50
2018-06-10T11:09:09.462Z,25.40
2018-06-10T11:11:37.950Z,25.60
2018-06-10T11:14:06.415Z,25.70
2018-06-10T11:16:35.167Z,25.60
2018-06-10T11:19:03.756Z,25.60
2018-06-10T11:21:32.260Z,25.80
2018-06-10T11:24:00.771Z,26.20
2018-06-10T11:26:29.242Z,26.30
2018-06-10T11:28:57.718Z,26.30
2018-06-10T11:31:26.190Z,26.50
2018-06-10T11:33:54.662Z,26.50
2018-06-10T11:36:23.309Z,26.00
2018-06-10T11:38:51.986Z,25.90
2018-06-10T11:41:20.494Z,26.40
2018-06-10T11:43:49.635Z,26.80
2018-06-10T11:46:18.144Z,26.80
2018-06-10T11:48:46.698Z,26.80
2018-06-10T11:51:15.161Z,26.90
2018-06-10T11:56:12.039Z,27.00
2018-06-10T11:58:40.525Z,27.70
2018-06-10T12:01:09.006Z,27.70
2018-06-10T12:03:37.483Z,27.50
2018-06-10T12:06:05.943Z,27.40
2018-06-10T12:08:34.415Z,27.40
2018-06-10T12:11:02.905Z,27.40
2018-06-10T12:13:31.446Z,28.00
2018-06-10T12:15:59.888Z,27.80
2018-06-10T12:18:28.506Z,27.80
2018-06-10T12:20:57.277Z,27.80
2018-06-10T12:23:25.802Z,27.60
2018-06-10T12:25:54.450Z,28.00
2018-06-10T12:28:22.945Z,27.90
2018-06-10T12:30:51.421Z,27.30
2018-06-10T12:33:19.906Z,27.30
2018-06-10T12:35:48.388Z,27.20
2018-06-10T12:38:16.885Z,27.40
2018-06-10T12:40:45.389Z,27.00
2018-06-10T12:43:13.937Z,26.60
2018-06-10T12:45:42.485Z,26.70
2018-06-10T12:48:11.167Z,26.90
2018-06-10T12:50:39.630Z,27.10
2018-06-10T12:53:08.143Z,27.70
2018-06-10T12:55:36.600Z,28.00
2018-06-10T12:58:05.209Z,27.80
2018-06-10T13:00:33.681Z,27.70
2018-06-10T13:03:02.165Z,27.80
2018-06-10T13:05:30.681Z,27.80
2018-06-10T13:07:59.200Z,27.70
2018-06-10T13:10:27.792Z,27.70
2018-06-10T13:12:56.345Z,27.40
2018-06-10T13:15:24.771Z,27.00
2018-06-10T13:17:53.242Z,26.80
2018-06-10T13:20:21.731Z,27.20
2018-06-10T13:22:50.271Z,27.30
2018-06-10T13:25:19.550Z,27.30
2018-06-10T13:27:48.039Z,27.10
2018-06-10T13:30:16.504Z,27.40
2018-06-10T13:32:45.040Z,27.70
2018-06-10T13:35:13.506Z,27.70
2018-06-10T13:37:41.963Z,27.80
2018-06-10T13:40:10.443Z,28.00
2018-06-10T13:42:38.887Z,27.80
2018-06-10T13:45:07.339Z,27.70
2018-06-10T13:50:04.123Z,28.00
2018-06-10T13:52:32.617Z,27.70
2018-06-10T13:55:01.101Z,27.70
2018-06-10T13:57:29.562Z,27.60
2018-06-10T13:59:58.065Z,27.70
2018-06-10T14:02:26.486Z,27.90
2018-06-10T14:04:55.017Z,28.20
2018-06-10T14:07:23.538Z,28.50
2018-06-10T14:09:52.008Z,28.40
2018-06-10T14:12:20.518Z,28.40
2018-06-10T14:14:49.025Z,28.20
2018-06-10T14:17:17.589Z,28.10
2018-06-10T14:22:14.302Z,28.30
2018-06-10T14:24:42.783Z,28.50
2018-06-10T14:27:11.351Z,28.80
2018-06-10T14:29:39.835Z,28.40
2018-06-10T14:32:08.282Z,28.50
2018-06-10T14:37:04.969Z,28.50
2018-06-10T14:39:33.424Z,28.30
2018-06-10T14:42:01.855Z,28.50
2018-06-10T14:44:30.373Z,28.60
2018-06-10T14:46:58.871Z,28.70
2018-06-10T14:49:27.446Z,28.40
2018-06-10T14:51:55.890Z,28.40
2018-06-10T14:54:24.519Z,28.40
2018-06-10T14:56:52.994Z,28.50
2018-06-10T14:59:21.533Z,28.40
2018-06-10T15:01:50.031Z,28.30
2018-06-10T15:04:18.549Z,28.20
2018-06-10T15:06:46.981Z,28.30
2018-06-10T15:09:15.442Z,28.20
2018-06-10T15:11:43.974Z,28.20
2018-06-10T15:14:12.389Z,28.10
2018-06-10T15:16:40.892Z,28.20
2018-06-10T15:19:09.341Z,28.50
2018-06-10T15:21:37.857Z,28.20
2018-06-10T15:24:06.382Z,28.10
2018-06-10T15:29:03.069Z,28.00
2018-06-10T15:31:31.583Z,28.40
2018-06-10T15:34:00.089Z,28.50
2018-06-10T15:38:56.811Z,28.20
2018-06-10T15:41:25.270Z,28.10
2018-06-10T15:43:53.738Z,28.00
2018-06-10T15:46:22.246Z,27.90
2018-06-10T15:48:50.722Z,27.80
2018-06-10T15:51:19.234Z,27.80
2018-06-10T15:53:47.780Z,27.90
2018-06-10T15:56:16.264Z,27.80
2018-06-10T15:58:44.814Z,27.70
2018-06-10T16:01:14.281Z,27.50
2018-06-10T16:03:42.750Z,27.40
2018-06-10T16:06:11.217Z,27.40
2018-06-10T16:08:39.700Z,27.50
2018-06-10T16:11:08.226Z,27.50
2018-06-10T16:13:36.717Z,27.60
2018-06-10T16:16:05.170Z,27.60
2018-06-10T16:18:33.642Z,27.70
2018-06-10T16:21:02.158Z,27.70
2018-06-10T16:23:30.673Z,27.80
2018-06-10T16:25:59.142Z,27.90
2018-06-10T16:28:27.647Z,27.90
2018-06-10T16:30:56.134Z,27.70
2018-06-10T16:33:24.655Z,27.50
2018-06-10T16:35:53.178Z,27.50
2018-06-10T16:38:21.591Z,27.50
2018-06-10T16:40:50.083Z,27.50
2018-06-10T16:43:18.635Z,27.40
2018-06-10T16:45:47.114Z,27.20
2018-06-10T16:48:15.589Z,27.10
2018-06-10T16:50:44.050Z,27.00
2018-06-10T16:53:12.539Z,27.00
2018-06-10T16:55:41.064Z,27.00
2018-06-10T16:58:09.758Z,27.00
2018-06-10T17:00:38.266Z,27.10
2018-06-10T17:05:35.022Z,27.10
2018-06-10T17:10:31.799Z,27.10
2018-06-10T17:13:00.319Z,27.00
2018-06-10T17:15:28.853Z,26.80
2018-06-10T17:17:57.973Z,26.80
2018-06-10T17:20:26.465Z,26.80
2018-06-10T17:22:55.027Z,26.80
2018-06-10T17:25:23.979Z,26.70
2018-06-10T17:27:52.525Z,26.60
2018-06-10T17:30:21.098Z,26.60
2018-06-10T17:32:49.579Z,26.50
2018-06-10T17:35:18.143Z,26.40
2018-06-10T17:37:46.677Z,26.40
2018-06-10T17:40:15.250Z,26.30
2018-06-10T17:42:43.725Z,26.40
2018-06-10T17:45:12.299Z,26.30
2018-06-10T17:47:40.805Z,26.30
2018-06-10T17:50:09.331Z,26.30
2018-06-10T17:52:37.900Z,26.30
2018-06-10T17:55:06.428Z,26.30
2018-06-10T17:57:34.910Z,26.30
2018-06-10T18:00:03.506Z,26.20
2018-06-10T18:02:32.071Z,26.10
2018-06-10T18:05:00.588Z,26.00
2018-06-10T18:07:29.943Z,26.00
2018-06-10T18:09:58.493Z,26.00
2018-06-10T18:12:26.945Z,26.00
2018-06-10T18:14:55.500Z,25.90
2018-06-10T18:17:24.001Z,25.90
2018-06-10T18:19:52.571Z,25.90
2018-06-10T18:22:21.163Z,25.80
2018-06-10T18:24:49.646Z,25.70
2018-06-10T18:27:18.208Z,25.90
2018-06-10T18:29:46.763Z,25.90
2018-06-10T18:32:15.282Z,25.70
2018-06-10T18:34:43.860Z,25.70
2018-06-10T18:37:18.690Z,25.60
2018-06-10T18:39:47.209Z,25.50
2018-06-10T18:42:15.710Z,25.30
2018-06-10T18:44:44.236Z,25.40
2018-06-10T18:47:12.800Z,25.30
2018-06-10T18:49:41.318Z,25.20
2018-06-10T18:52:09.864Z,25.10
2018-06-10T18:54:38.385Z,25.00
2018-06-10T18:57:06.938Z,25.00
2018-06-10T18:59:35.427Z,24.90
2018-06-10T19:02:04.003Z,24.90
2018-06-10T19:04:32.477Z,24.70
2018-06-10T19:07:01.028Z,24.60
2018-06-10T19:11:57.788Z,24.50
2018-06-10T19:16:54.495Z,24.60
2018-06-10T19:19:23.008Z,24.60
2018-06-10T19:21:51.541Z,24.40
2018-06-10T19:24:20.330Z,24.20
2018-06-10T19:26:48.843Z,24.20
2018-06-10T19:29:17.487Z,24.00
2018-06-10T19:31:46.201Z,24.10
2018-06-10T19:34:14.708Z,23.90
2018-06-10T19:36:43.309Z,23.70
2018-06-10T19:39:12.167Z,23.60
2018-06-10T19:41:40.721Z,23.60
2018-06-10T19:44:09.357Z,23.60
2018-06-10T19:46:37.882Z,23.60
2018-06-10T19:49:06.416Z,23.60
2018-06-10T19:51:35.041Z,23.30
2018-06-10T19:54:03.688Z,23.40
2018-06-10T19:56:32.328Z,23.10
2018-06-10T19:59:01.011Z,23.10
2018-06-10T20:01:29.792Z,23.00
2018-06-10T20:03:58.417Z,23.00
2018-06-10T20:06:26.875Z,22.80
2018-06-10T20:08:55.493Z,22.90
2018-06-10T20:11:24.078Z,22.90
2018-06-10T20:13:52.700Z,22.80
2018-06-10T20:16:21.436Z,22.80
2018-06-10T20:18:50.002Z,23.00
2018-06-10T20:21:18.620Z,23.00
2018-06-10T20:23:47.606Z,22.80
2018-06-10T20:26:16.427Z,22.80
2018-06-10T20:28:44.970Z,22.60
2018-06-10T20:31:13.675Z,22.60
2018-06-10T20:36:11.273Z,22.50
2018-06-10T20:38:39.768Z,22.40
2018-06-10T20:41:08.342Z,22.40
2018-06-10T20:43:36.863Z,22.40
2018-06-10T20:46:05.630Z,22.30
2018-06-10T20:48:34.235Z,22.30
2018-06-10T20:51:02.686Z,22.40
2018-06-10T20:53:31.205Z,22.40
2018-06-10T20:55:59.773Z,22.10
2018-06-10T20:58:28.325Z,22.00
2018-06-10T21:00:56.891Z,21.90
2018-06-10T21:03:25.421Z,21.80
2018-06-10T21:05:53.948Z,21.90
2018-06-10T21:08:22.446Z,22.10
2018-06-10T21:10:50.970Z,22.10
2018-06-10T21:13:19.809Z,22.20
2018-06-10T21:15:48.354Z,22.20
2018-06-10T21:18:16.878Z,22.30
2018-06-10T21:20:45.508Z,22.10
2018-06-10T21:23:14.099Z,22.10
2018-06-10T21:25:42.653Z,22.00
2018-06-10T21:28:11.230Z,22.00
2018-06-10T21:30:39.921Z,22.00
2018-06-10T21:33:08.541Z,22.00
2018-06-10T21:35:37.007Z,21.90
2018-06-10T21:38:05.927Z,21.80
2018-06-10T21:40:34.390Z,21.80
2018-06-10T21:43:02.953Z,21.70
2018-06-10T21:45:31.568Z,21.70
2018-06-10T21:48:00.222Z,21.80
2018-06-10T21:50:28.731Z,21.80
2018-06-10T21:52:57.305Z,21.80
2018-06-10T21:55:26.039Z,21.70
2018-06-10T21:57:54.655Z,21.70
2018-06-10T22:00:24.795Z,21.70
2018-06-10T22:02:53.352Z,21.80
2018-06-10T22:05:22.219Z,21.70
2018-06-10T22:07:50.671Z,21.70
2018-06-10T22:10:19.246Z,21.60
2018-06-10T22:15:16.136Z,21.60
2018-06-10T22:17:44.708Z,21.50
2018-06-10T22:22:41.300Z,21.50
2018-06-10T22:25:09.771Z,21.30
2018-06-10T22:27:38.328Z,21.30
2018-06-10T22:30:06.818Z,21.40
2018-06-10T22:32:35.324Z,21.50
2018-06-10T22:35:04.014Z,21.50
2018-06-10T22:37:32.489Z,21.40
2018-06-10T22:40:00.995Z,21.40
2018-06-10T22:42:29.498Z,21.40
2018-06-10T22:44:57.950Z,21.40
2018-06-10T22:47:26.477Z,21.30
2018-06-10T22:52:23.283Z,21.20
2018-06-10T22:54:51.726Z,21.30
2018-06-10T22:57:20.466Z,21.20
2018-06-10T22:59:48.986Z,21.20
2018-06-10T23:02:17.747Z,21.10
2018-06-10T23:04:46.460Z,21.10
2018-06-10T23:09:43.074Z,21.10
2018-06-10T23:12:11.857Z,21.10
2018-06-10T23:14:40.503Z,21.10
2018-06-10T23:17:09.028Z,21.00
2018-06-10T23:19:37.454Z,20.80
2018-06-10T23:22:06.124Z,20.80
2018-06-10T23:24:34.686Z,20.80
2018-06-10T23:27:03.382Z,20.70
2018-06-10T23:29:31.854Z,20.80
2018-06-10T23:32:00.541Z,20.80
2018-06-10T23:34:29.202Z,20.80
2018-06-10T23:36:57.846Z,20.80
2018-06-10T23:39:27.293Z,20.70
2018-06-10T23:41:55.794Z,20.60
2018-06-10T23:44:24.303Z,20.50
2018-06-10T23:46:52.815Z,20.70
2018-06-10T23:49:21.442Z,20.70
2018-06-10T23:51:49.991Z,20.70
2018-06-10T23:54:18.471Z,20.60
2018-06-10T23:56:46.995Z,20.70
2018-06-10T23:59:15.437Z,20.70
